Time;durP1;ratioP1;P1;durP2;ratioP2;P2;SDS_P1;SDS_P2;PMS_P1;PMS_P2;Temp;Humidity;BMP_temperature;BMP_pressure;BME280_temperature;BME280_humidity;BME280_pressure;Samples;Min_cycle;Max_cycle;Signal;HPM_P1;HPM_P2
2023/06/14 00:01:27;;;;;;;5.72;4.28;;;14.00;99.90;;;;;;6158269;23;20038;-80
2023/06/14 00:03:53;;;;;;;5.32;3.47;;;14.00;99.90;;;;;;6159742;23;19997;-80
2023/06/14 00:06:19;;;;;;;7.85;4.40;;;14.00;99.90;;;;;;6160772;23;20080;-80
2023/06/14 00:08:44;;;;;;;6.50;4.35;;;14.00;99.90;;;;;;6159453;23;19997;-80
2023/06/14 00:11:10;;;;;;;5.60;3.85;;;13.90;99.90;;;;;;6186116;23;20001;-80
2023/06/14 00:13:36;;;;;;;4.63;3.22;;;14.00;99.90;;;;;;6160225;23;20095;-80
2023/06/14 00:16:01;;;;;;;7.78;4.70;;;13.90;99.90;;;;;;6185799;23;20004;-80
2023/06/14 00:18:29;;;;;;;5.15;3.80;;;13.90;99.90;;;;;;6160874;23;20005;-80
2023/06/14 00:20:55;;;;;;;6.63;4.25;;;13.90;99.90;;;;;;6159909;23;20005;-80
2023/06/14 00:23:21;;;;;;;5.68;3.63;;;13.80;99.90;;;;;;6159122;23;20055;-80
2023/06/14 00:25:47;;;;;;;6.70;4.60;;;13.80;99.90;;;;;;6185116;23;20004;-80
2023/06/14 00:28:13;;;;;;;6.93;4.20;;;13.80;99.90;;;;;;6186000;23;20446;-80
2023/06/14 00:30:38;;;;;;;5.75;4.18;;;13.80;99.90;;;;;;6158015;23;20005;-80
2023/06/14 00:33:04;;;;;;;7.05;4.38;;;13.80;99.90;;;;;;6185228;23;20009;-81
2023/06/14 00:35:29;;;;;;;4.90;3.58;;;13.70;99.90;;;;;;6159029;23;20500;-80
2023/06/14 00:37:55;;;;;;;8.10;5.13;;;13.70;99.90;;;;;;6158126;23;20005;-80
2023/06/14 00:40:21;;;;;;;7.18;4.18;;;13.70;99.90;;;;;;6159271;23;20009;-79
2023/06/14 00:42:47;;;;;;;7.50;3.90;;;13.60;99.90;;;;;;6158215;23;20434;-80
2023/06/14 00:45:13;;;;;;;8.70;4.57;;;13.70;99.90;;;;;;6158142;23;20012;-79
2023/06/14 00:47:40;;;;;;;6.38;4.43;;;13.60;99.90;;;;;;6157766;23;20001;-81
2023/06/14 00:50:07;;;;;;;6.00;4.40;;;13.60;99.90;;;;;;6150906;23;20041;-80
2023/06/14 00:52:34;;;;;;;5.38;3.70;;;13.60;99.90;;;;;;6183211;23;19997;-79
2023/06/14 00:55:00;;;;;;;6.82;4.15;;;13.60;99.90;;;;;;6184032;23;20001;-79
2023/06/14 00:57:27;;;;;;;6.47;4.68;;;13.60;99.90;;;;;;6158376;23;20080;-79
2023/06/14 00:59:52;;;;;;;5.72;4.10;;;13.60;99.90;;;;;;6154375;23;20032;-79
2023/06/14 01:02:18;;;;;;;4.78;3.35;;;13.60;99.90;;;;;;6154933;23;20335;-81
2023/06/14 01:04:47;;;;;;;7.50;3.80;;;13.60;99.90;;;;;;6156054;23;20013;-80
2023/06/14 01:07:24;;;;;;;5.35;3.58;;;13.60;99.90;;;;;;6157328;23;20029;-80
2023/06/14 01:10:21;;;;;;;9.05;4.35;;;13.70;99.90;;;;;;6157970;23;20084;-80
2023/06/14 01:12:55;;;;;;;6.38;3.83;;;13.60;99.90;;;;;;6184825;23;20454;-80
2023/06/14 01:15:21;;;;;;;6.50;3.95;;;13.60;99.90;;;;;;6156810;23;20012;-80
2023/06/14 01:17:51;;;;;;;5.82;3.80;;;13.60;99.90;;;;;;6185092;23;20619;-79
2023/06/14 01:20:19;;;;;;;5.03;4.22;;;13.50;99.90;;;;;;6158426;23;20040;-80
2023/06/14 01:22:53;;;;;;;6.05;3.90;;;13.40;99.90;;;;;;6158569;23;20005;-81
2023/06/14 01:25:26;;;;;;;5.45;4.15;;;13.50;99.90;;;;;;6158525;23;20016;-81
2023/06/14 01:27:57;;;;;;;6.80;3.67;;;13.50;99.90;;;;;;6157670;23;20008;-81
2023/06/14 01:30:25;;;;;;;7.43;4.28;;;13.50;99.90;;;;;;6183673;23;20088;-80
2023/06/14 01:32:52;;;;;;;5.80;3.47;;;13.50;99.90;;;;;;6157637;23;20052;-80
2023/06/14 01:35:18;;;;;;;5.13;4.60;;;13.50;99.90;;;;;;6156790;23;20013;-80
2023/06/14 01:37:46;;;;;;;9.40;4.30;;;13.50;99.90;;;;;;6156318;23;20332;-80
2023/06/14 01:40:14;;;;;;;6.97;4.50;;;13.50;99.90;;;;;;6158070;23;20005;-80
2023/06/14 01:42:40;;;;;;;6.50;4.90;;;13.40;99.90;;;;;;6158027;23;20013;-81
2023/06/14 01:45:07;;;;;;;6.53;4.50;;;13.40;99.90;;;;;;6156351;23;20011;-80
2023/06/14 01:47:33;;;;;;;4.70;3.75;;;13.30;99.90;;;;;;6158277;23;20028;-81
2023/06/14 01:49:59;;;;;;;6.68;4.43;;;13.30;99.90;;;;;;6158362;23;20391;-80
2023/06/14 01:52:24;;;;;;;7.07;3.30;;;13.30;99.90;;;;;;6156459;23;20032;-80
2023/06/14 01:54:50;;;;;;;5.93;3.33;;;13.40;99.90;;;;;;6157428;23;20036;-81
2023/06/14 01:57:16;;;;;;;4.18;3.13;;;13.30;99.90;;;;;;6184649;23;20272;-81
2023/06/14 01:59:41;;;;;;;7.70;3.83;;;13.30;99.90;;;;;;6157434;23;20020;-79
2023/06/14 02:02:07;;;;;;;4.18;3.53;;;13.30;99.90;;;;;;6156827;23;20044;-81
2023/06/14 02:04:33;;;;;;;4.97;2.85;;;13.30;99.90;;;;;;6182357;23;20006;-81
2023/06/14 02:06:59;;;;;;;6.75;3.83;;;13.30;99.90;;;;;;6181291;23;20001;-80
2023/06/14 02:09:24;;;;;;;5.68;3.88;;;13.30;99.90;;;;;;6153870;23;20662;-80
2023/06/14 02:11:50;;;;;;;9.38;3.92;;;13.40;99.90;;;;;;6156319;23;20005;-81
2023/06/14 02:14:17;;;;;;;7.25;3.70;;;13.30;99.90;;;;;;6182804;23;20394;-80
2023/06/14 02:16:48;;;;;;;9.43;3.92;;;13.30;99.90;;;;;;6157275;23;20013;-81
2023/06/14 02:19:17;;;;;;;5.03;3.35;;;13.30;99.90;;;;;;6157571;23;20384;-81
2023/06/14 02:21:44;;;;;;;4.47;4.07;;;13.30;99.90;;;;;;6156663;23;20016;-81
2023/06/14 02:24:09;;;;;;;6.70;4.18;;;13.20;99.90;;;;;;6157238;23;20104;-81
2023/06/14 02:26:35;;;;;;;5.68;4.25;;;13.30;99.90;;;;;;6184749;23;20319;-81
2023/06/14 02:29:01;;;;;;;7.70;3.85;;;13.30;99.90;;;;;;6156847;23;20009;-81
2023/06/14 02:31:27;;;;;;;6.90;4.22;;;13.30;99.90;;;;;;6181967;23;20017;-80
2023/06/14 02:33:52;;;;;;;5.93;3.80;;;13.20;99.90;;;;;;6156862;23;20081;-79
2023/06/14 02:36:18;;;;;;;7.53;4.13;;;13.10;99.90;;;;;;6156789;23;20009;-81
2023/06/14 02:38:45;;;;;;;5.97;4.43;;;13.10;99.90;;;;;;6181783;23;20079;-80
2023/06/14 02:41:10;;;;;;;7.13;4.10;;;13.10;99.90;;;;;;6154640;23;20009;-80
2023/06/14 02:43:36;;;;;;;6.10;4.18;;;13.10;99.90;;;;;;6156680;23;20331;-81
2023/06/14 02:46:01;;;;;;;6.35;4.43;;;13.10;99.90;;;;;;6155568;23;20508;-80
2023/06/14 02:48:28;;;;;;;5.50;4.53;;;13.10;99.90;;;;;;6156456;23;19997;-79
2023/06/14 02:50:53;;;;;;;7.22;4.75;;;13.10;99.90;;;;;;6152750;23;20088;-81
2023/06/14 02:53:19;;;;;;;8.10;5.13;;;13.10;99.90;;;;;;6156813;23;20005;-81
2023/06/14 02:55:44;;;;;;;5.90;4.82;;;13.10;99.90;;;;;;6183300;23;20008;-80
2023/06/14 02:58:10;;;;;;;9.05;4.55;;;13.10;99.90;;;;;;6178433;23;20005;-80
2023/06/14 03:00:36;;;;;;;7.05;4.40;;;13.10;99.90;;;;;;6152134;23;20405;-81
2023/06/14 03:03:01;;;;;;;5.93;4.10;;;13.00;99.90;;;;;;6152564;23;20012;-81
2023/06/14 03:05:28;;;;;;;7.82;4.53;;;13.00;99.90;;;;;;6154601;23;20005;-81
2023/06/14 03:07:53;;;;;;;9.65;4.93;;;13.00;99.90;;;;;;6155518;23;20005;-81
2023/06/14 03:10:19;;;;;;;8.35;4.93;;;13.00;99.90;;;;;;6182129;23;19997;-81
2023/06/14 03:12:45;;;;;;;9.52;4.72;;;13.00;99.90;;;;;;6155249;23;20005;-80
2023/06/14 03:15:12;;;;;;;6.18;3.97;;;12.90;99.90;;;;;;6154809;23;20012;-81
2023/06/14 03:17:38;;;;;;;6.05;4.68;;;12.90;99.90;;;;;;6155331;23;20078;-81
2023/06/14 03:20:08;;;;;;;7.07;5.22;;;12.90;99.90;;;;;;6154295;23;20092;-80
2023/06/14 03:22:34;;;;;;;6.18;4.70;;;12.90;99.90;;;;;;6155654;23;20005;-81
2023/06/14 03:25:00;;;;;;;6.75;5.10;;;12.90;99.90;;;;;;6154796;23;20012;-81
2023/06/14 03:27:28;;;;;;;9.95;5.35;;;12.90;99.90;;;;;;6157832;23;20001;-80
2023/06/14 03:29:53;;;;;;;7.30;5.20;;;12.90;99.90;;;;;;6177573;23;20013;-79
2023/06/14 03:32:19;;;;;;;6.03;4.65;;;13.00;99.90;;;;;;6204100;23;20020;-81
2023/06/14 03:34:45;;;;;;;6.45;5.18;;;13.00;99.90;;;;;;6169803;23;20111;-81
2023/06/14 03:37:10;;;;;;;7.47;5.00;;;13.00;99.90;;;;;;6183855;23;20052;-81
2023/06/14 03:39:36;;;;;;;6.40;4.88;;;12.90;99.90;;;;;;6158057;23;20067;-81
2023/06/14 03:42:02;;;;;;;7.10;5.18;;;13.00;99.90;;;;;;6158186;23;20005;-81
2023/06/14 03:44:28;;;;;;;10.10;4.93;;;13.00;99.90;;;;;;6159474;23;20013;-81
2023/06/14 03:46:53;;;;;;;7.55;5.47;;;13.00;99.90;;;;;;6159093;23;20009;-81
2023/06/14 03:49:19;;;;;;;10.27;5.90;;;12.90;99.90;;;;;;6157792;23;20092;-80
2023/06/14 03:51:45;;;;;;;8.93;5.60;;;12.90;99.90;;;;;;6156005;23;20005;-81
2023/06/14 03:54:11;;;;;;;8.55;5.20;;;12.90;99.90;;;;;;6157805;23;20056;-81
2023/06/14 03:56:36;;;;;;;8.20;5.40;;;12.90;99.90;;;;;;6158319;23;20005;-80
2023/06/14 03:59:02;;;;;;;10.65;5.80;;;12.90;99.90;;;;;;6154668;23;20009;-81
2023/06/14 04:01:29;;;;;;;7.00;5.03;;;13.00;99.90;;;;;;6184588;23;20192;-82
2023/06/14 04:03:58;;;;;;;9.73;4.63;;;13.00;99.90;;;;;;6183288;23;20008;-80
2023/06/14 04:06:24;;;;;;;7.75;6.43;;;13.00;99.90;;;;;;6184101;23;19997;-81
2023/06/14 04:08:52;;;;;;;6.05;4.82;;;13.10;99.90;;;;;;6155881;23;20010;-81
2023/06/14 04:11:17;;;;;;;8.52;5.57;;;13.10;99.90;;;;;;6155845;23;20108;-81
2023/06/14 04:13:44;;;;;;;8.05;5.05;;;13.10;99.90;;;;;;6183301;23;20001;-81
2023/06/14 04:16:09;;;;;;;7.93;4.97;;;13.10;99.90;;;;;;6156877;23;20009;-82
2023/06/14 04:18:35;;;;;;;7.32;4.85;;;13.10;99.90;;;;;;6155667;23;20302;-81
2023/06/14 04:21:00;;;;;;;10.13;5.28;;;13.10;99.90;;;;;;6182223;23;20008;-81
2023/06/14 04:23:28;;;;;;;6.90;4.90;;;13.20;99.90;;;;;;6182256;23;20387;-81
2023/06/14 04:25:53;;;;;;;8.20;5.68;;;13.20;99.90;;;;;;6154751;23;20064;-80
2023/06/14 04:28:19;;;;;;;6.18;4.70;;;13.30;99.90;;;;;;6155606;23;20005;-81
2023/06/14 04:30:47;;;;;;;10.63;5.75;;;13.30;99.90;;;;;;6155033;23;20136;-81
2023/06/14 04:33:13;;;;;;;6.22;4.47;;;13.40;99.90;;;;;;6155389;23;20372;-81
2023/06/14 04:35:40;;;;;;;6.10;4.68;;;13.40;99.90;;;;;;6156191;23;20005;-81
2023/06/14 04:38:09;;;;;;;6.03;4.70;;;13.40;99.90;;;;;;6156325;23;20009;-81
2023/06/14 04:40:36;;;;;;;6.28;5.40;;;13.40;99.90;;;;;;6156392;23;20017;-81
2023/06/14 04:43:05;;;;;;;8.95;5.15;;;13.50;99.90;;;;;;6184254;23;20001;-81
2023/06/14 04:45:31;;;;;;;9.27;5.57;;;13.50;99.90;;;;;;6183719;23;20005;-81
2023/06/14 04:47:59;;;;;;;8.02;5.22;;;13.60;99.90;;;;;;6184158;23;20084;-81
2023/06/14 04:50:24;;;;;;;6.95;4.90;;;13.60;99.90;;;;;;6154043;23;20425;-81
2023/06/14 04:52:51;;;;;;;6.93;4.90;;;13.60;99.90;;;;;;6156483;23;20029;-81
2023/06/14 04:55:19;;;;;;;7.22;5.10;;;13.70;99.90;;;;;;6157530;23;20036;-81
2023/06/14 04:57:44;;;;;;;8.52;5.15;;;13.80;99.90;;;;;;6158692;23;20031;-81
2023/06/14 05:00:11;;;;;;;7.93;4.97;;;13.80;99.90;;;;;;6184169;23;20005;-81
2023/06/14 05:02:37;;;;;;;5.28;4.47;;;13.80;99.90;;;;;;6184250;23;20009;-81
2023/06/14 05:05:07;;;;;;;7.35;5.10;;;13.90;99.90;;;;;;6157003;23;20012;-80
2023/06/14 05:07:33;;;;;;;8.60;5.18;;;13.90;99.90;;;;;;6156815;23;20002;-81
2023/06/14 05:09:59;;;;;;;7.70;4.47;;;13.90;99.90;;;;;;6183360;23;20001;-81
2023/06/14 05:12:24;;;;;;;7.10;5.53;;;14.00;99.90;;;;;;6184683;23;20048;-79
2023/06/14 05:14:50;;;;;;;5.28;3.67;;;14.00;99.90;;;;;;6183199;23;20073;-80
2023/06/14 05:17:16;;;;;;;5.57;4.03;;;14.10;99.90;;;;;;6184956;23;20009;-81
2023/06/14 05:19:42;;;;;;;11.32;5.57;;;14.20;99.90;;;;;;6157615;23;20005;-80
2023/06/14 05:22:08;;;;;;;5.20;4.35;;;14.30;99.90;;;;;;6156861;23;20007;-81
2023/06/14 05:24:33;;;;;;;4.40;3.70;;;14.30;99.90;;;;;;6160856;23;20009;-80
2023/06/14 05:26:59;;;;;;;5.60;3.70;;;14.40;99.90;;;;;;6160534;23;20398;-81
2023/06/14 05:29:25;;;;;;;7.00;4.43;;;14.40;99.90;;;;;;6158393;23;20020;-81
2023/06/14 05:31:51;;;;;;;6.47;3.38;;;14.60;99.90;;;;;;6187093;23;20474;-81
2023/06/14 05:34:17;;;;;;;6.28;4.13;;;14.70;99.90;;;;;;6161868;23;20016;-80
2023/06/14 05:36:42;;;;;;;6.22;4.07;;;14.80;99.90;;;;;;6156036;23;20012;-81
2023/06/14 05:39:08;;;;;;;5.47;3.55;;;14.90;99.90;;;;;;6152364;23;20338;-82
2023/06/14 05:41:34;;;;;;;6.70;3.95;;;15.00;99.90;;;;;;6146908;23;20401;-62
2023/06/14 05:44:00;;;;;;;5.40;3.97;;;15.20;99.90;;;;;;6180439;23;20009;-62
2023/06/14 05:46:26;;;;;;;5.53;3.70;;;15.30;99.90;;;;;;6180024;23;20009;-61
2023/06/14 05:48:52;;;;;;;8.32;3.50;;;15.50;99.90;;;;;;6180042;23;20005;-61
2023/06/14 05:51:19;;;;;;;4.72;3.63;;;15.60;99.90;;;;;;6179201;23;20445;-63
2023/06/14 05:53:48;;;;;;;5.68;3.70;;;15.80;99.90;;;;;;6180429;23;20012;-62
2023/06/14 05:56:14;;;;;;;8.13;3.90;;;16.00;99.90;;;;;;6180120;23;20013;-63
2023/06/14 05:58:40;;;;;;;4.90;3.40;;;16.20;99.90;;;;;;6180098;23;20040;-62
2023/06/14 06:01:06;;;;;;;6.32;3.50;;;16.30;99.90;;;;;;6179224;23;20175;-62
2023/06/14 06:03:32;;;;;;;6.32;3.47;;;16.50;99.90;;;;;;6179996;23;20005;-62
2023/06/14 06:05:58;;;;;;;6.38;4.07;;;16.70;99.90;;;;;;6153102;23;20009;-60
2023/06/14 06:08:23;;;;;;;5.18;3.13;;;16.90;99.90;;;;;;6179650;23;20096;-62
2023/06/14 06:10:49;;;;;;;7.03;3.88;;;17.00;99.90;;;;;;6179906;23;20091;-62
2023/06/14 06:13:15;;;;;;;5.32;3.13;;;17.20;99.90;;;;;;6153103;23;20006;-62
2023/06/14 06:15:41;;;;;;;4.80;3.05;;;17.30;99.90;;;;;;6179358;23;20442;-62
2023/06/14 06:18:06;;;;;;;4.68;2.90;;;17.50;99.90;;;;;;6179733;23;20028;-62
2023/06/14 06:20:32;;;;;;;7.53;2.83;;;17.70;99.90;;;;;;6180459;23;20048;-62
2023/06/14 06:23:01;;;;;;;4.53;3.17;;;17.90;99.90;;;;;;6153136;23;20345;-63
2023/06/14 06:25:26;;;;;;;7.05;3.08;;;18.00;99.90;;;;;;6153064;23;20008;-66
2023/06/14 06:27:53;;;;;;;3.88;2.97;;;18.10;99.90;;;;;;6178954;23;20001;-62
2023/06/14 06:30:20;;;;;;;3.30;2.33;;;18.20;99.90;;;;;;6179154;23;20020;-62
2023/06/14 06:32:46;;;;;;;3.92;2.33;;;18.30;99.90;;;;;;6179309;23;19997;-63
2023/06/14 06:35:14;;;;;;;4.20;2.65;;;18.50;99.90;;;;;;6152803;23;20009;-65
2023/06/14 06:37:42;;;;;;;3.42;2.22;;;18.60;99.90;;;;;;6178388;23;20052;-63
2023/06/14 06:40:08;;;;;;;2.63;2.00;;;18.70;99.90;;;;;;6178334;23;20001;-64
2023/06/14 06:42:34;;;;;;;2.55;2.03;;;18.90;99.90;;;;;;6178287;23;20086;-64
2023/06/14 06:45:00;;;;;;;3.45;2.25;;;19.00;99.90;;;;;;6151951;23;20434;-64
2023/06/14 06:47:25;;;;;;;2.63;2.22;;;19.10;99.90;;;;;;6179120;23;20032;-64
2023/06/14 06:49:51;;;;;;;2.75;2.53;;;19.20;99.90;;;;;;6179006;23;20386;-66
2023/06/14 06:52:17;;;;;;;2.75;2.15;;;19.30;99.90;;;;;;6179085;23;20032;-63
2023/06/14 06:54:43;;;;;;;2.85;2.13;;;19.40;99.90;;;;;;6151778;23;20040;-65
2023/06/14 06:57:08;;;;;;;2.10;1.92;;;19.50;99.90;;;;;;6178654;23;20005;-63
2023/06/14 06:59:34;;;;;;;4.68;2.13;;;19.70;99.90;;;;;;6178313;23;20131;-66
2023/06/14 07:02:00;;;;;;;2.08;1.75;;;19.80;99.90;;;;;;6178538;23;20063;-67
2023/06/14 07:04:26;;;;;;;3.85;2.20;;;20.00;99.90;;;;;;6178739;23;20013;-64
2023/06/14 07:06:51;;;;;;;3.42;1.88;;;20.10;99.90;;;;;;6179012;23;19997;-65
2023/06/14 07:09:18;;;;;;;2.78;2.03;;;20.20;99.90;;;;;;6152146;23;20464;-66
2023/06/14 07:11:44;;;;;;;2.85;2.17;;;20.30;99.90;;;;;;6178985;23;20005;-64
2023/06/14 07:14:10;;;;;;;3.10;2.03;;;20.40;99.90;;;;;;6152171;23;20015;-63
2023/06/14 07:16:36;;;;;;;4.35;2.42;;;20.50;99.90;;;;;;6152978;23;20005;-63
2023/06/14 07:19:03;;;;;;;4.22;3.03;;;20.60;99.90;;;;;;6179496;23;19997;-65
2023/06/14 07:21:29;;;;;;;2.72;2.15;;;20.80;99.90;;;;;;6179269;23;20005;-63
2023/06/14 07:23:54;;;;;;;5.60;2.00;;;21.00;99.90;;;;;;6178171;23;20005;-64
2023/06/14 07:26:20;;;;;;;2.67;2.33;;;21.10;99.90;;;;;;6179279;23;20005;-64
2023/06/14 07:28:47;;;;;;;2.33;1.90;;;21.30;99.60;;;;;;6178808;23;20377;-65
2023/06/14 07:31:13;;;;;;;4.65;2.65;;;21.40;99.40;;;;;;6178585;23;20493;-65
2023/06/14 07:33:40;;;;;;;2.75;2.08;;;21.60;98.10;;;;;;6178866;23;19998;-68
2023/06/14 07:36:06;;;;;;;4.95;2.17;;;21.70;97.30;;;;;;6178913;23;20077;-67
2023/06/14 07:38:31;;;;;;;2.75;1.92;;;21.80;96.50;;;;;;6151328;23;20012;-64
2023/06/14 07:40:57;;;;;;;2.58;2.13;;;21.90;97.00;;;;;;6152468;23;20091;-65
2023/06/14 07:43:22;;;;;;;5.60;2.00;;;22.00;96.20;;;;;;6152513;23;20100;-65
2023/06/14 07:45:48;;;;;;;2.20;1.98;;;22.10;96.00;;;;;;6178258;23;20043;-63
2023/06/14 07:48:13;;;;;;;4.18;2.00;;;22.20;95.70;;;;;;6178584;23;19997;-64
2023/06/14 07:50:39;;;;;;;3.58;2.15;;;22.30;94.20;;;;;;6178414;23;20471;-64
2023/06/14 07:53:05;;;;;;;3.33;2.28;;;22.30;93.90;;;;;;6152727;23;20005;-65
2023/06/14 07:55:32;;;;;;;3.00;1.77;;;22.30;94.00;;;;;;6178411;23;20011;-64
2023/06/14 07:57:58;;;;;;;2.55;2.13;;;22.40;93.30;;;;;;6178940;23;20101;-64
2023/06/14 08:00:24;;;;;;;2.03;1.83;;;22.50;93.60;;;;;;6177686;23;20013;-65
2023/06/14 08:02:51;;;;;;;3.00;2.30;;;22.60;93.70;;;;;;6178020;23;20008;-66
2023/06/14 08:05:17;;;;;;;2.95;2.20;;;22.70;93.00;;;;;;6152020;23;20009;-65
2023/06/14 08:07:43;;;;;;;4.55;2.08;;;22.80;92.80;;;;;;6178638;23;20300;-64
2023/06/14 08:10:08;;;;;;;3.30;2.22;;;23.00;93.10;;;;;;6180563;23;20000;-66
2023/06/14 08:12:34;;;;;;;3.83;2.10;;;23.20;92.60;;;;;;6154528;23;20005;-64
2023/06/14 08:15:00;;;;;;;4.30;2.35;;;23.30;91.40;;;;;;6180797;23;20009;-65
2023/06/14 08:17:26;;;;;;;2.45;2.00;;;23.30;90.50;;;;;;6180325;23;20079;-65
2023/06/14 08:19:54;;;;;;;2.20;2.05;;;23.30;90.50;;;;;;6181228;23;20438;-66
2023/06/14 08:22:21;;;;;;;2.95;2.50;;;23.40;91.70;;;;;;6153712;23;20009;-68
2023/06/14 08:24:47;;;;;;;4.25;2.13;;;23.50;90.40;;;;;;6179284;23;20059;-64
2023/06/14 08:27:13;;;;;;;2.60;2.20;;;23.10;90.80;;;;;;6180451;23;20495;-65
2023/06/14 08:29:40;;;;;;;3.28;1.60;;;23.20;91.20;;;;;;6180605;23;20008;-65
2023/06/14 08:32:06;;;;;;;3.53;2.30;;;23.30;90.40;;;;;;6179955;23;20009;-64
2023/06/14 08:34:32;;;;;;;2.42;1.85;;;23.50;89.60;;;;;;6153590;23;20080;-63
2023/06/14 08:36:58;;;;;;;3.42;1.77;;;23.60;89.20;;;;;;6180132;23;20009;-64
2023/06/14 08:39:24;;;;;;;2.35;1.80;;;23.70;88.60;;;;;;6153948;23;20107;-64
2023/06/14 08:41:52;;;;;;;3.42;2.10;;;23.80;88.90;;;;;;6181079;23;20040;-65
2023/06/14 08:44:17;;;;;;;4.72;2.40;;;23.90;88.60;;;;;;6180282;23;20456;-64
2023/06/14 08:46:43;;;;;;;3.47;1.95;;;23.90;86.30;;;;;;6180209;23;20001;-63
2023/06/14 08:49:12;;;;;;;3.25;2.20;;;23.90;88.20;;;;;;6180416;23;20054;-66
2023/06/14 08:51:38;;;;;;;3.60;2.28;;;24.10;87.70;;;;;;6180448;23;20499;-64
2023/06/14 08:54:04;;;;;;;2.72;1.90;;;24.20;86.80;;;;;;6180151;23;20076;-66
2023/06/14 08:56:31;;;;;;;2.88;2.17;;;24.30;85.10;;;;;;6180652;23;20011;-66
2023/06/14 08:59:02;;;;;;;4.90;2.35;;;24.30;84.90;;;;;;6180536;23;20016;-66
2023/06/14 09:01:28;;;;;;;4.72;2.90;;;24.30;85.60;;;;;;6179931;23;20028;-65
2023/06/14 09:03:57;;;;;;;2.95;2.13;;;24.30;84.80;;;;;;6180304;23;20015;-63
2023/06/14 09:06:24;;;;;;;4.25;2.78;;;24.20;84.70;;;;;;6180824;23;20008;-66
2023/06/14 09:08:50;;;;;;;3.80;2.20;;;24.30;83.60;;;;;;6154006;23;20078;-65
2023/06/14 09:11:18;;;;;;;1.95;1.75;;;24.50;83.60;;;;;;6180268;23;20001;-66
2023/06/14 09:13:48;;;;;;;4.38;2.42;;;24.70;83.90;;;;;;6181008;23;20008;-66
2023/06/14 09:16:15;;;;;;;3.97;2.70;;;24.80;83.80;;;;;;6180568;23;20008;-66
2023/06/14 09:18:43;;;;;;;4.93;2.28;;;25.10;81.60;;;;;;6180454;23;20004;-70
2023/06/14 09:21:09;;;;;;;3.80;2.20;;;25.10;81.10;;;;;;6153138;23;20005;-66
2023/06/14 09:23:42;;;;;;;3.63;2.13;;;25.20;82.30;;;;;;6180234;23;20008;-64
2023/06/14 09:26:23;;;;;;;6.82;2.55;;;25.20;81.70;;;;;;6179599;23;20077;-63
2023/06/14 09:28:50;;;;;;;5.10;3.03;;;25.20;80.10;;;;;;6153775;23;20001;-64
2023/06/14 09:31:20;;;;;;;2.88;2.20;;;24.90;80.50;;;;;;6153167;23;20104;-64
2023/06/14 09:33:48;;;;;;;2.38;2.17;;;24.90;80.50;;;;;;6179934;23;20314;-66
2023/06/14 09:36:24;;;;;;;2.67;2.15;;;24.90;80.10;;;;;;6180384;23;20084;-66
2023/06/14 09:38:56;;;;;;;3.83;2.45;;;24.90;80.20;;;;;;6179013;23;20005;-66
2023/06/14 09:41:35;;;;;;;3.58;2.30;;;24.90;80.40;;;;;;6180409;23;20033;-64
2023/06/14 09:44:03;;;;;;;3.67;2.45;;;24.70;79.90;;;;;;6179622;23;20136;-64
2023/06/14 09:46:30;;;;;;;2.67;2.05;;;24.60;80.10;;;;;;6179995;23;20011;-64
2023/06/14 09:48:59;;;;;;;5.47;2.70;;;24.60;80.40;;;;;;6179403;23;19996;-65
2023/06/14 09:51:26;;;;;;;4.00;2.30;;;24.60;80.80;;;;;;6180011;23;20338;-65
2023/06/14 09:53:52;;;;;;;5.07;2.55;;;24.50;80.20;;;;;;6179515;23;20013;-64
2023/06/14 09:56:34;;;;;;;2.95;2.08;;;24.40;79.80;;;;;;6153342;23;20055;-66
2023/06/14 09:59:05;;;;;;;5.93;2.53;;;24.50;80.50;;;;;;6179883;23;20005;-65
2023/06/14 10:01:32;;;;;;;6.78;2.60;;;24.30;81.00;;;;;;6178733;23;20127;-65
2023/06/14 10:04:06;;;;;;;4.32;2.60;;;24.50;80.90;;;;;;6152677;23;20009;-65
2023/06/14 10:06:36;;;;;;;3.45;2.20;;;24.50;81.00;;;;;;6179766;23;20016;-63
2023/06/14 10:09:05;;;;;;;3.17;2.22;;;24.60;80.80;;;;;;6180027;23;20047;-65
2023/06/14 10:11:31;;;;;;;3.17;2.47;;;24.70;79.80;;;;;;6180208;23;20001;-63
2023/06/14 10:13:58;;;;;;;5.20;2.35;;;24.70;78.90;;;;;;6179202;23;20505;-65
2023/06/14 10:16:34;;;;;;;4.07;1.95;;;24.50;79.10;;;;;;6179753;23;20062;-65
2023/06/14 10:19:18;;;;;;;6.07;2.47;;;24.20;78.30;;;;;;6180176;23;20445;-65
2023/06/14 10:22:05;;;;;;;2.55;2.15;;;24.10;78.70;;;;;;6179538;23;20393;-65
2023/06/14 10:24:41;;;;;;;3.85;2.70;;;24.10;80.70;;;;;;6178701;23;20386;-67
2023/06/14 10:27:10;;;;;;;3.25;2.72;;;24.10;79.70;;;;;;6151768;23;20027;-65
2023/06/14 10:30:01;;;;;;;2.92;2.20;;;24.10;80.60;;;;;;6152969;23;20082;-64
2023/06/14 10:32:30;;;;;;;2.70;2.20;;;23.90;80.60;;;;;;6178989;23;20067;-64
2023/06/14 10:34:58;;;;;;;4.97;2.17;;;23.80;81.60;;;;;;6178762;23;20008;-64
2023/06/14 10:37:24;;;;;;;2.40;2.20;;;23.70;81.60;;;;;;6178953;23;20017;-65
2023/06/14 10:39:50;;;;;;;4.32;2.20;;;23.70;82.10;;;;;;6179412;23;20005;-65
2023/06/14 10:42:16;;;;;;;6.05;1.85;;;23.60;81.70;;;;;;6179525;23;20009;-65
2023/06/14 10:44:45;;;;;;;3.67;2.65;;;23.70;81.50;;;;;;6152491;23;20012;-64
2023/06/14 10:47:22;;;;;;;3.58;2.20;;;23.80;82.00;;;;;;6179855;23;19997;-66
2023/06/14 10:50:13;;;;;;;3.08;2.70;;;24.00;83.00;;;;;;6152692;23;20032;-65
2023/06/14 10:52:41;;;;;;;3.05;2.50;;;24.20;79.90;;;;;;6179206;23;20016;-65
2023/06/14 10:55:18;;;;;;;4.47;2.50;;;24.40;81.00;;;;;;6178770;23;20001;-67
2023/06/14 10:57:45;;;;;;;2.80;2.25;;;24.40;81.30;;;;;;6179280;23;20344;-68
2023/06/14 11:00:13;;;;;;;5.50;2.63;;;24.50;81.20;;;;;;6178359;23;20072;-68
2023/06/14 11:03:09;;;;;;;4.28;2.17;;;24.60;80.70;;;;;;6153287;23;20350;-65
2023/06/14 11:05:41;;;;;;;;;;;24.50;79.70;;;;;;6179458;23;20418;-64
2023/06/14 11:08:44;;;;;;;4.55;2.58;;;24.30;78.90;;;;;;6179219;23;19900;-64
2023/06/14 11:11:12;;;;;;;2.78;2.45;;;24.20;81.80;;;;;;6179389;23;20382;-65
2023/06/14 11:13:39;;;;;;;3.30;2.30;;;24.30;80.90;;;;;;6178827;23;19997;-72
2023/06/14 11:16:14;;;;;;;6.07;2.22;;;24.40;80.20;;;;;;6152455;23;20040;-64
2023/06/14 11:18:41;;;;;;;3.53;2.28;;;24.50;80.60;;;;;;6179488;23;20036;-66
2023/06/14 11:21:06;;;;;;;3.45;2.50;;;24.60;80.20;;;;;;6178467;23;20546;-63
2023/06/14 11:23:32;;;;;;;2.10;1.98;;;24.70;79.80;;;;;;6179125;23;20039;-67
2023/06/14 11:25:57;;;;;;;4.53;2.63;;;24.70;79.70;;;;;;6178598;23;20080;-64
2023/06/14 11:28:23;;;;;;;4.65;2.42;;;24.70;78.40;;;;;;6177930;23;20084;-64
2023/06/14 11:30:59;;;;;;;3.25;1.95;;;24.70;79.70;;;;;;6177972;23;20012;-62
2023/06/14 11:33:25;;;;;;;3.17;2.25;;;24.70;78.40;;;;;;6178133;23;20072;-63
2023/06/14 11:35:52;;;;;;;4.85;2.80;;;24.90;78.50;;;;;;6151966;23;20456;-65
2023/06/14 11:38:17;;;;;;;3.85;2.33;;;24.90;78.30;;;;;;6152525;23;20012;-64
2023/06/14 11:40:43;;;;;;;4.68;2.15;;;24.80;78.50;;;;;;6178883;23;20021;-63
2023/06/14 11:43:08;;;;;;;1.92;1.77;;;24.70;78.50;;;;;;6178586;23;20057;-66
2023/06/14 11:45:35;;;;;;;4.38;2.40;;;24.60;76.40;;;;;;6152455;23;20020;-64
2023/06/14 11:48:00;;;;;;;2.63;2.10;;;24.50;76.30;;;;;;6151955;23;20012;-64
2023/06/14 11:50:26;;;;;;;3.42;2.15;;;24.60;77.20;;;;;;6152813;23;20009;-64
2023/06/14 11:52:54;;;;;;;2.92;2.00;;;24.70;77.70;;;;;;6179186;23;20005;-67
2023/06/14 11:55:20;;;;;;;4.15;2.35;;;24.80;77.70;;;;;;6151982;23;20019;-65
2023/06/14 11:57:46;;;;;;;3.38;2.20;;;25.00;77.90;;;;;;6178802;23;20512;-66
2023/06/14 12:00:13;;;;;;;4.28;2.47;;;25.10;77.40;;;;;;6178171;23;20055;-64
2023/06/14 12:02:41;;;;;;;3.42;1.90;;;25.10;76.30;;;;;;6178889;23;19997;-64
2023/06/14 12:05:09;;;;;;;3.50;2.58;;;25.00;76.30;;;;;;6178534;23;20001;-64
2023/06/14 12:07:36;;;;;;;3.55;2.20;;;24.90;76.60;;;;;;6178032;23;20025;-65
2023/06/14 12:10:02;;;;;;;4.25;2.10;;;24.70;76.00;;;;;;6178840;23;20001;-64
2023/06/14 12:12:29;;;;;;;2.60;2.35;;;24.50;76.10;;;;;;6178380;23;20001;-64
2023/06/14 12:14:56;;;;;;;11.85;2.70;;;24.30;77.80;;;;;;6152210;23;20038;-64
2023/06/14 12:17:22;;;;;;;4.35;2.30;;;24.40;77.70;;;;;;6178697;23;20072;-65
2023/06/14 12:19:49;;;;;;;2.90;2.50;;;24.50;77.20;;;;;;6178933;23;20001;-64
2023/06/14 12:22:16;;;;;;;6.38;2.55;;;24.50;77.40;;;;;;6179007;23;20027;-65
2023/06/14 12:24:45;;;;;;;2.25;2.05;;;24.30;77.40;;;;;;6177099;23;20013;-65
2023/06/14 12:27:15;;;;;;;3.85;2.70;;;24.20;77.70;;;;;;6152516;23;20084;-65
2023/06/14 12:29:44;;;;;;;3.45;2.10;;;24.30;78.10;;;;;;6178873;23;20005;-64
2023/06/14 12:32:10;;;;;;;4.60;2.60;;;24.30;77.60;;;;;;6178263;23;20013;-66
2023/06/14 12:34:36;;;;;;;5.15;2.03;;;24.50;77.20;;;;;;6177984;23;20093;-66
2023/06/14 12:37:04;;;;;;;4.15;2.47;;;24.70;77.30;;;;;;6179166;23;20457;-65
2023/06/14 12:39:31;;;;;;;7.13;2.47;;;24.90;75.90;;;;;;6152218;23;20008;-64
2023/06/14 12:41:57;;;;;;;3.80;2.30;;;25.00;75.90;;;;;;6152278;23;20032;-64
2023/06/14 12:44:23;;;;;;;2.88;2.13;;;25.10;76.30;;;;;;6178289;23;20001;-66
2023/06/14 12:46:51;;;;;;;3.58;1.98;;;25.10;76.00;;;;;;6178975;23;20008;-66
2023/06/14 12:49:17;;;;;;;2.83;2.00;;;25.10;76.20;;;;;;6178141;23;20017;-65